This is the latest recevied weather packets stored in our database for station/object EA4BCR. If no packets are shown the sender has not sent any weather packets the latest 10 day(s).
| Time | Temp. | Humidity | Pressure | Rain* | Wind** | Luminosity | Snow |
|---|---|---|---|---|---|---|---|
| 1778068855 | 21.11° C | 33% | 1008.7 hPa | - | - | - | - |
| 1778068255 | 20.56° C | 36% | 1009 hPa | - | - | - | - |
| 1778067655 | 19.44° C | 34% | 1009.5 hPa | - | - | - | - |
| 1778067054 | 19.44° C | 35% | 1009.6 hPa | - | - | - | - |
| 1778066454 | 18.89° C | 36% | 1009.8 hPa | - | - | - | - |
| 1778065854 | 18.33° C | 37% | 1010.3 hPa | - | - | - | - |
| 1778065254 | 18.33° C | 38% | 1010.2 hPa | - | - | - | - |
| 1778064655 | 20° C | 36% | 1009.8 hPa | - | - | - | - |
| 1778064054 | 20° C | 33% | 1009.6 hPa | - | - | - | - |
| 1778063454 | 18.33° C | 37% | 1010.3 hPa | - | - | - | - |
| 1778062854 | 18.89° C | 35% | 1010.2 hPa | - | - | - | - |
| 1778062254 | 18.89° C | 37% | 1010.2 hPa | - | - | - | - |
| 1778061655 | 18.89° C | 36% | 1010.2 hPa | - | - | - | - |
| 1778061054 | 18.33° C | 41% | 1010.4 hPa | - | - | - | - |
| 1778060454 | 18.33° C | 40% | 1010.4 hPa | - | - | - | - |
| 1778059854 | 16.67° C | 43% | 1010.9 hPa | - | - | - | - |
| 1778059255 | 17.22° C | 41% | 1010.8 hPa | - | - | - | - |
| 1778058655 | 16.11° C | 45% | 1011.2 hPa | - | - | - | - |
| 1778058054 | 16.11° C | 43% | 1011.2 hPa | - | - | - | - |
| 1778057454 | 15.56° C | 48% | 1011.4 hPa | - | - | - | - |
| 1778056854 | 15.56° C | 45% | 1011.4 hPa | - | - | - | - |
| 1778056254 | 14.44° C | 57% | 1011.8 hPa | - | - | - | - |
| 1778055654 | 13.89° C | 57% | 1012 hPa | - | - | - | - |
| 1778055054 | 13.33° C | 61% | 1012.4 hPa | - | - | - | - |
| 1778054454 | 11.67° C | 67% | 1013.1 hPa | - | - | - | - |
* Rain since midnight (hover to see other rain measurements)
** Current wind speed in m/s (hover to see current wind gust speed)